KTKV

Tomahawk Regional Airport

Tomahawk, Wisconsin, USA
METAR KTKV 191315Z AUTO 00000KT 10SM BKN110 M01/M03 A2969 RMK AO2 T10111028
Observed Flight Rules
Dec-19 @ 13:15 UTC (25 minutes ago) Visual Flight Rules
Visibility Clouds
10 miles
  • Broken at 11,000' AGL
Temperatures Readings
Current -1°C / 30°F
Dewpoint -3°C / 27°F
Humidity 86%
Altimeter 29.69" Hg
Pressure 1005 hPa
Elevation 453
METAR KTKV 191315Z AUTO 00000KT 10SM BKN110 M01/M03 A2969 RMK AO2 T10111028
Observed Flight Rules
Dec-19 @ 13:15 UTC
(25 minutes ago)
VFR
Clouds
  • Broken at 11,000' AGL
Temperature Dewpoint
-1°C / 30°F -3°C / 27°F
Humidity Altimeter Pressure
86% 29.69" Hg 1005 hPa